createdAt,value
2023-04-22T00:02:04.000Z,6.2
2023-04-22T00:05:37.000Z,6.5
2023-04-22T00:09:09.000Z,6.1
2023-04-22T00:12:42.000Z,6.1
2023-04-22T00:16:15.000Z,6.3
2023-04-22T00:19:48.000Z,6.5
2023-04-22T00:23:20.000Z,6.2
2023-04-22T00:26:53.000Z,6.3
2023-04-22T00:30:25.000Z,6.2
2023-04-22T00:33:17.000Z,5.6
2023-04-22T00:36:49.000Z,6
2023-04-22T00:40:22.000Z,5.9
2023-04-22T00:43:55.000Z,6.1
2023-04-22T00:47:27.000Z,5.8
2023-04-22T00:51:00.000Z,5.8
2023-04-22T00:54:32.000Z,5.7
2023-04-22T00:58:05.000Z,5.5
2023-04-22T01:01:38.000Z,5.6
2023-04-22T01:05:11.000Z,6.1
2023-04-22T01:08:44.000Z,6.3
2023-04-22T01:11:35.000Z,6.3
2023-04-22T01:15:08.000Z,5.5
2023-04-22T01:18:41.000Z,5.9
2023-04-22T01:22:13.000Z,5.8
2023-04-22T01:25:46.000Z,5.8
2023-04-22T01:29:18.000Z,5.8
2023-04-22T01:32:51.000Z,6.1
2023-04-22T01:36:24.000Z,5.7
2023-04-22T01:39:56.000Z,5.5
2023-04-22T01:43:29.000Z,5.6
2023-04-22T01:47:02.000Z,5.2
2023-04-22T01:49:53.000Z,5.6
2023-04-22T01:53:25.000Z,5.9
2023-04-22T01:56:58.000Z,5.5
2023-04-22T02:00:31.000Z,5.5
2023-04-22T02:04:03.000Z,5.1
2023-04-22T02:07:36.000Z,5.9
2023-04-22T02:11:09.000Z,4.8
2023-04-22T02:14:41.000Z,5.1
2023-04-22T02:18:14.000Z,5
2023-04-22T02:21:47.000Z,5
2023-04-22T02:25:19.000Z,4.9
2023-04-22T02:28:11.000Z,5.1
2023-04-22T02:31:43.000Z,5.2
2023-04-22T02:35:16.000Z,4.8
2023-04-22T02:38:49.000Z,5.1
2023-04-22T02:42:21.000Z,4.6
2023-04-22T02:45:54.000Z,4.9
2023-04-22T02:49:27.000Z,5.2
2023-04-22T02:52:59.000Z,5.1
2023-04-22T02:56:32.000Z,4.8
2023-04-22T03:00:04.000Z,4.8
2023-04-22T03:03:37.000Z,4.8
2023-04-22T03:06:28.000Z,5.6
2023-04-22T03:10:01.000Z,6.1
2023-04-22T03:13:34.000Z,5.4
2023-04-22T03:17:06.000Z,4.5
2023-04-22T03:20:39.000Z,5.3
2023-04-22T03:24:11.000Z,4.9
2023-04-22T03:27:44.000Z,4.8
2023-04-22T03:31:17.000Z,4.3
2023-04-22T03:34:49.000Z,5.3
2023-04-22T03:38:22.000Z,4.7
2023-04-22T03:41:55.000Z,4.4
2023-04-22T03:44:46.000Z,5.1
2023-04-22T03:48:19.000Z,5.1
2023-04-22T03:51:51.000Z,4.6
2023-04-22T03:55:24.000Z,4.6
2023-04-22T03:58:56.000Z,5.7
2023-04-22T04:02:29.000Z,6.1
2023-04-22T04:06:02.000Z,4.9
2023-04-22T04:09:35.000Z,4.8
2023-04-22T04:13:08.000Z,5.1
2023-04-22T04:16:40.000Z,5.8
2023-04-22T04:20:13.000Z,5.8
2023-04-22T04:23:04.000Z,6.4
2023-04-22T04:26:36.000Z,5.6
2023-04-22T04:30:09.000Z,5.4
2023-04-22T04:33:42.000Z,5.1
2023-04-22T04:37:14.000Z,5.2
2023-04-22T04:40:47.000Z,5.3
2023-04-22T04:44:20.000Z,5.3
2023-04-22T04:47:52.000Z,6
2023-04-22T04:51:25.000Z,5.9
2023-04-22T04:54:58.000Z,5.4
2023-04-22T04:58:30.000Z,6.3
2023-04-22T05:01:21.000Z,6.7
2023-04-22T05:04:54.000Z,6.7
2023-04-22T05:08:27.000Z,6.1
2023-04-22T05:12:00.000Z,6.2
2023-04-22T05:15:33.000Z,6.5
2023-04-22T05:19:05.000Z,5.3
2023-04-22T05:22:38.000Z,8.6
2023-04-22T05:26:11.000Z,7.6
2023-04-22T05:29:43.000Z,7
2023-04-22T05:33:16.000Z,7.2
2023-04-22T05:36:49.000Z,8.6
2023-04-22T05:39:40.000Z,6
2023-04-22T05:43:13.000Z,5.6
2023-04-22T05:46:45.000Z,6.2
2023-04-22T05:50:18.000Z,8.7
2023-04-22T05:53:51.000Z,8
2023-04-22T05:57:23.000Z,6.4
2023-04-22T06:00:56.000Z,5.9
2023-04-22T06:04:29.000Z,7.3
2023-04-22T06:08:03.000Z,10.6
2023-04-22T06:11:36.000Z,10.2
2023-04-22T06:15:09.000Z,9
2023-04-22T06:18:00.000Z,7.7
2023-04-22T06:21:33.000Z,9.3
2023-04-22T06:25:05.000Z,8.3
2023-04-22T06:28:38.000Z,7.5
2023-04-22T06:32:11.000Z,7.9
2023-04-22T06:35:44.000Z,7.3
2023-04-22T06:39:16.000Z,7.8
2023-04-22T06:42:49.000Z,10.7
2023-04-22T06:46:22.000Z,6.8
2023-04-22T06:49:54.000Z,7.3
2023-04-22T06:53:27.000Z,7.9
2023-04-22T06:56:18.000Z,8.3
2023-04-22T06:59:51.000Z,8.7
2023-04-22T07:03:23.000Z,8.5
2023-04-22T07:06:56.000Z,8.6
2023-04-22T07:10:29.000Z,9.9
2023-04-22T07:14:01.000Z,8.6
2023-04-22T07:17:34.000Z,9.8
2023-04-22T07:21:07.000Z,8.8
2023-04-22T07:24:39.000Z,9.4
2023-04-22T07:28:12.000Z,9.3
2023-04-22T07:31:45.000Z,8.3
2023-04-22T07:34:36.000Z,7.3
2023-04-22T07:38:09.000Z,7.9
2023-04-22T07:41:42.000Z,7.5
2023-04-22T07:45:14.000Z,8.1
2023-04-22T07:48:47.000Z,8.3
2023-04-22T07:52:20.000Z,7.1
2023-04-22T07:55:52.000Z,8.9
2023-04-22T07:59:27.000Z,7.1
2023-04-22T08:03:00.000Z,6.8
2023-04-22T08:06:33.000Z,6
2023-04-22T08:10:06.000Z,5.7
2023-04-22T08:12:57.000Z,5.8
2023-04-22T08:16:30.000Z,5.2
2023-04-22T08:20:02.000Z,5.1
2023-04-22T08:23:35.000Z,4.6
2023-04-22T08:27:07.000Z,4.3
2023-04-22T08:30:40.000Z,4.6
2023-04-22T08:34:13.000Z,4.2
2023-04-22T08:37:45.000Z,4.4
2023-04-22T08:41:18.000Z,4.2
2023-04-22T08:44:51.000Z,4.1
2023-04-22T08:48:23.000Z,3.7
2023-04-22T08:51:15.000Z,3.9
2023-04-22T08:54:48.000Z,3.6
2023-04-22T08:58:20.000Z,3.8
2023-04-22T09:01:53.000Z,4.2
2023-04-22T09:05:26.000Z,4.2
2023-04-22T09:08:58.000Z,3.8
2023-04-22T09:12:33.000Z,3.5
2023-04-22T09:16:05.000Z,3.5
2023-04-22T09:19:38.000Z,3.4
2023-04-22T09:23:11.000Z,3.4
2023-04-22T09:26:43.000Z,3.6
2023-04-22T09:29:34.000Z,3.9
2023-04-22T09:33:07.000Z,4
2023-04-22T09:36:40.000Z,8
2023-04-22T09:40:12.000Z,4.4
2023-04-22T09:43:45.000Z,3.3
2023-04-22T09:47:17.000Z,3.3
2023-04-22T09:50:50.000Z,2.9
2023-04-22T09:54:23.000Z,2.9
2023-04-22T09:57:56.000Z,2.7
2023-04-22T10:01:28.000Z,2.5
2023-04-22T10:05:01.000Z,2.6
2023-04-22T10:07:53.000Z,2.6
2023-04-22T10:11:26.000Z,2.5
2023-04-22T10:14:58.000Z,2.7
2023-04-22T10:18:31.000Z,2.4
2023-04-22T10:22:04.000Z,2.5
2023-04-22T10:25:36.000Z,2.6
2023-04-22T10:29:09.000Z,2.3
2023-04-22T10:32:42.000Z,2.3
2023-04-22T10:36:15.000Z,2.6
2023-04-22T10:39:47.000Z,2.8
2023-04-22T10:43:20.000Z,1.9
2023-04-22T10:46:11.000Z,1.9
2023-04-22T10:49:44.000Z,2.1
2023-04-22T10:53:17.000Z,1.8
2023-04-22T10:56:49.000Z,2
2023-04-22T11:00:23.000Z,1.7
2023-04-22T11:04:17.000Z,2.1
2023-04-22T11:07:50.000Z,2.2
2023-04-22T11:11:22.000Z,2.1
2023-04-22T11:14:55.000Z,1.9
2023-04-22T11:18:28.000Z,2.1
2023-04-22T11:22:01.000Z,1.7
2023-04-22T11:24:52.000Z,2.2
2023-04-22T11:28:25.000Z,2.1
2023-04-22T11:31:57.000Z,2.3
2023-04-22T11:35:30.000Z,2.1
2023-04-22T11:39:02.000Z,2.1
2023-04-22T11:42:38.000Z,2.2
2023-04-22T11:46:11.000Z,2.2
2023-04-22T11:49:47.000Z,2.2
2023-04-22T11:53:19.000Z,1.8
2023-04-22T11:56:52.000Z,2.2
2023-04-22T12:00:25.000Z,2.5
2023-04-22T12:03:16.000Z,2.4
2023-04-22T12:06:50.000Z,2.2
2023-04-22T12:10:22.000Z,2.2
2023-04-22T12:13:55.000Z,2.3
2023-04-22T12:17:27.000Z,2.4
2023-04-22T12:21:00.000Z,2.4
2023-04-22T12:24:33.000Z,2.3
2023-04-22T12:28:05.000Z,2.4
2023-04-22T12:31:39.000Z,3.4
2023-04-22T12:35:12.000Z,2.6
2023-04-22T12:38:44.000Z,2.4
2023-04-22T12:41:35.000Z,2.1
2023-04-22T12:45:08.000Z,2.6
2023-04-22T12:48:41.000Z,3.4
2023-04-22T12:52:13.000Z,3
2023-04-22T12:55:46.000Z,2.6
2023-04-22T12:59:18.000Z,2.6
2023-04-22T13:02:51.000Z,2.7
2023-04-22T13:06:24.000Z,2.5
2023-04-22T13:10:06.000Z,2.4
2023-04-22T13:13:38.000Z,2.3
2023-04-22T13:17:11.000Z,2.4
2023-04-22T13:20:02.000Z,2.3
2023-04-22T13:23:35.000Z,2.2
2023-04-22T13:27:07.000Z,2.8
2023-04-22T13:30:40.000Z,2.7
2023-04-22T13:34:13.000Z,3
2023-04-22T13:37:46.000Z,2.6
2023-04-22T13:41:18.000Z,2.4
2023-04-22T13:44:51.000Z,2.1
2023-04-22T13:48:24.000Z,2.5
2023-04-22T13:51:57.000Z,2.4
2023-04-22T13:55:33.000Z,2.3
2023-04-22T13:58:24.000Z,2.3
2023-04-22T14:01:57.000Z,2.3
2023-04-22T14:05:30.000Z,2.1
2023-04-22T14:09:03.000Z,2.2
2023-04-22T14:12:35.000Z,2.2
2023-04-22T14:16:08.000Z,2.1
2023-04-22T14:19:41.000Z,2.1
2023-04-22T14:23:14.000Z,2.1
2023-04-22T14:26:46.000Z,2.4
2023-04-22T14:30:19.000Z,1.9
2023-04-22T14:33:52.000Z,2.2
2023-04-22T14:36:43.000Z,2.3
2023-04-22T14:40:16.000Z,2.2
2023-04-22T14:43:48.000Z,2.1
2023-04-22T14:47:21.000Z,2.3
2023-04-22T14:50:54.000Z,2
2023-04-22T14:54:26.000Z,2.2
2023-04-22T14:57:59.000Z,2
2023-04-22T15:01:32.000Z,2.3
2023-04-22T15:05:05.000Z,2.1
2023-04-22T15:08:37.000Z,2.2
2023-04-22T15:12:10.000Z,2.1
2023-04-22T15:15:01.000Z,1.9
2023-04-22T15:18:34.000Z,2.1
2023-04-22T15:22:08.000Z,2.1
2023-04-22T15:25:40.000Z,2.2
2023-04-22T15:29:13.000Z,2.1
2023-04-22T15:32:46.000Z,2.2
2023-04-22T15:36:18.000Z,2.3
2023-04-22T15:39:51.000Z,2.3
2023-04-22T15:43:24.000Z,2.4
2023-04-22T15:46:56.000Z,2.5
2023-04-22T15:50:29.000Z,2.5
2023-04-22T15:53:23.000Z,2.5
2023-04-22T15:56:56.000Z,2.2
2023-04-22T16:00:33.000Z,2.9
2023-04-22T16:04:06.000Z,2.7
2023-04-22T16:07:39.000Z,3.1
2023-04-22T16:11:11.000Z,2.6
2023-04-22T16:14:44.000Z,2.9
2023-04-22T16:18:17.000Z,2.9
2023-04-22T16:21:49.000Z,2.8
2023-04-22T16:25:22.000Z,3
2023-04-22T16:28:55.000Z,3
2023-04-22T16:31:46.000Z,2.9
2023-04-22T16:35:19.000Z,2.7
2023-04-22T16:38:51.000Z,2.7
2023-04-22T16:42:24.000Z,2.4
2023-04-22T16:45:56.000Z,2.8
2023-04-22T16:49:29.000Z,3.7
2023-04-22T16:53:02.000Z,2.8
2023-04-22T16:56:35.000Z,3
2023-04-22T17:00:08.000Z,2.7
2023-04-22T17:03:41.000Z,2.6
2023-04-22T17:07:14.000Z,2.7
2023-04-22T17:10:05.000Z,2.9
2023-04-22T17:13:38.000Z,2.6
2023-04-22T17:17:10.000Z,2.7
2023-04-22T17:20:43.000Z,4
2023-04-22T17:24:15.000Z,2.6
2023-04-22T17:27:48.000Z,2.6
2023-04-22T17:31:21.000Z,2.7
2023-04-22T17:34:54.000Z,2.5
2023-04-22T17:38:26.000Z,2.1
2023-04-22T17:41:59.000Z,2.4
2023-04-22T17:45:32.000Z,2.6
2023-04-22T17:48:23.000Z,2.6
2023-04-22T17:51:56.000Z,2.3
2023-04-22T17:55:28.000Z,2.3
2023-04-22T17:59:01.000Z,2.6
2023-04-22T18:02:33.000Z,2.5
2023-04-22T18:06:07.000Z,2.3
2023-04-22T18:09:39.000Z,2.1
2023-04-22T18:13:12.000Z,2.2
2023-04-22T18:16:45.000Z,2.4
2023-04-22T18:20:17.000Z,2.4
2023-04-22T18:23:59.000Z,2.4
2023-04-22T18:26:50.000Z,2.2
2023-04-22T18:30:22.000Z,2.3
2023-04-22T18:33:57.000Z,2.2
2023-04-22T18:37:30.000Z,2
2023-04-22T18:41:03.000Z,2.5
2023-04-22T18:44:35.000Z,2.7
2023-04-22T18:48:08.000Z,2.1
2023-04-22T18:51:41.000Z,2.2
2023-04-22T18:55:14.000Z,2.4
2023-04-22T18:58:46.000Z,2.2
2023-04-22T19:02:20.000Z,2.3
2023-04-22T19:05:11.000Z,2.1
2023-04-22T19:08:44.000Z,2.6
2023-04-22T19:12:17.000Z,2.5
2023-04-22T19:15:52.000Z,2.7
2023-04-22T19:19:25.000Z,2.3
2023-04-22T19:22:57.000Z,2.3
2023-04-22T19:26:30.000Z,2.2
2023-04-22T19:30:02.000Z,2.5
2023-04-22T19:33:35.000Z,2.1
2023-04-22T19:37:08.000Z,2.4
2023-04-22T19:40:40.000Z,2.1
2023-04-22T19:43:31.000Z,3.1
2023-04-22T19:47:04.000Z,2.7
2023-04-22T19:50:36.000Z,2.9
2023-04-22T19:54:09.000Z,3
2023-04-22T19:57:42.000Z,2.7
2023-04-22T20:01:14.000Z,2.8
2023-04-22T20:04:47.000Z,2.8
2023-04-22T20:08:20.000Z,2.6
2023-04-22T20:11:52.000Z,2.4
2023-04-22T20:15:25.000Z,2.8
2023-04-22T20:18:57.000Z,2.5
2023-04-22T20:21:49.000Z,2.4
2023-04-22T20:25:21.000Z,2.7
2023-04-22T20:28:54.000Z,2.4
2023-04-22T20:32:26.000Z,2.9
2023-04-22T20:35:59.000Z,2.7
2023-04-22T20:39:32.000Z,2.6
2023-04-22T20:43:04.000Z,2.8
2023-04-22T20:46:37.000Z,2.7
2023-04-22T20:50:10.000Z,2.8
2023-04-22T20:53:42.000Z,2.7
2023-04-22T20:57:15.000Z,2.9
2023-04-22T21:00:07.000Z,3
2023-04-22T21:04:03.000Z,3
2023-04-22T21:07:36.000Z,2.9
2023-04-22T21:11:09.000Z,3
2023-04-22T21:14:42.000Z,2.8
2023-04-22T21:18:14.000Z,3.1
2023-04-22T21:21:47.000Z,2.8
2023-04-22T21:25:20.000Z,3.2
2023-04-22T21:28:52.000Z,2.4
2023-04-22T21:32:25.000Z,2.3
2023-04-22T21:36:26.000Z,2.6
2023-04-22T21:39:17.000Z,2.4
2023-04-22T21:42:49.000Z,2.4
2023-04-22T21:46:22.000Z,2.6
2023-04-22T21:49:55.000Z,2.4
2023-04-22T21:53:27.000Z,2.6
2023-04-22T21:57:00.000Z,2.7
2023-04-22T22:00:32.000Z,2.3
2023-04-22T22:04:05.000Z,2.3
2023-04-22T22:07:41.000Z,2.4
2023-04-22T22:11:14.000Z,2.3
2023-04-22T22:14:56.000Z,2.5
2023-04-22T22:17:47.000Z,2.1
2023-04-22T22:21:20.000Z,2.1
2023-04-22T22:24:53.000Z,2.1
2023-04-22T22:28:25.000Z,2.4
2023-04-22T22:31:58.000Z,2.3
2023-04-22T22:35:30.000Z,2.3
2023-04-22T22:39:03.000Z,2.4
2023-04-22T22:42:36.000Z,2
2023-04-22T22:46:08.000Z,2.5
2023-04-22T22:49:41.000Z,2.7
2023-04-22T22:53:17.000Z,2.5
2023-04-22T22:56:08.000Z,3
2023-04-22T22:59:41.000Z,2.9
2023-04-22T23:03:14.000Z,3.7
2023-04-22T23:06:47.000Z,3.6
2023-04-22T23:10:19.000Z,3.6
2023-04-22T23:13:52.000Z,3.6
2023-04-22T23:17:25.000Z,3.7
2023-04-22T23:20:57.000Z,3.8
2023-04-22T23:24:30.000Z,4
2023-04-22T23:28:03.000Z,4.3
2023-04-22T23:31:36.000Z,4.3
2023-04-22T23:34:27.000Z,4.3
2023-04-22T23:38:00.000Z,4.2
2023-04-22T23:41:32.000Z,4.7
2023-04-22T23:45:05.000Z,4.8
2023-04-22T23:48:38.000Z,4.2
2023-04-22T23:52:10.000Z,5
2023-04-22T23:55:43.000Z,5.3
2023-04-22T23:59:16.000Z,5
